| time (UTC) | temp C | wind direction | speed KPH | gust KPH | rain 1hr cm | rain 24hr cm | rain mn cm | humidity % | barometer mb |
| 20260902203621 | 13 | 190 | 3.2 | 3.2 | 0.00 | 0.00 | 0.00 | 100 | |
| 20260902203121 | 13 | 190 | 3.2 | 3.2 | 0.00 | 0.00 | 0.00 | 100 | |
| 20260902202621 | 13 | 190 | 3.2 | 3.2 | 0.00 | 0.00 | 0.00 | 100 | |
| 20260902202121 | 14 | 190 | 3.2 | 3.2 | 0.00 | 0.00 | 0.00 | 100 | |
| 20260902201617 | 14 | 190 | 3.2 | 3.2 | 0.00 | 0.00 | 0.00 | 100 | |
| 20260902201117 | 14 | 190 | 3.2 | 3.2 | 0.00 | 0.00 | 0.00 | 100 | |
| 20260902200616 | 14 | 190 | 3.2 | 3.2 | 0.00 | 0.00 | 0.00 | 100 | |
| 20260902200117 | 14 | 190 | 3.2 | 3.2 | 0.00 | 0.00 | 0.00 | 100 | |
| 20260902195603 | 14 | 190 | 3.2 | 3.2 | 0.00 | 0.00 | 0.00 | 100 | |
| 20260902195103 | 15 | 167 | 3.2 | 3.2 | 0.00 | 0.00 | 0.00 | 100 | |
| 20260902194603 | 15 | 167 | 3.2 | 3.2 | 0.00 | 0.00 | 0.00 | 100 | |
| 20260902194103 | 15 | 190 | 3.2 | 3.2 | 0.00 | 0.00 | 0.00 | 100 | |
| 20260902193603 | 15 | 190 | 3.2 | 3.2 | 0.00 | 0.00 | 0.00 | 100 | |
| 20260902193103 | 15 | 190 | 3.2 | 3.2 | 0.00 | 0.00 | 0.00 | 100 | |
| 20260902192146 | 15 | 169 | 3.2 | 3.2 | 0.00 | 0.00 | 0.00 | 100 | |
| 20260902192102 | 15 | 169 | 3.2 | 3.2 | 0.00 | 0.00 | 0.00 | 100 | |
| 20260902191602 | 15 | 164 | 3.2 | 3.2 | 0.00 | 0.00 | 0.00 | 100 | |
| 20260902191102 | 15 | 190 | 3.2 | 3.2 | 0.00 | 0.00 | 0.00 | 100 | |
| 20260902190602 | 15 | 190 | 3.2 | 3.2 | 0.00 | 0.00 | 0.00 | 100 | |
| 20260902185601 | 15 | 188 | 3.2 | 3.2 | 0.00 | 0.00 | 0.00 | 100 | |
| 20260902185101 | 16 | 149 | 3.2 | 3.2 | 0.00 | 0.00 | 0.00 | 100 | |
| 20260902184601 | 16 | 149 | 3.2 | 3.2 | 0.00 | 0.00 | 0.00 | 100 | |
| 20260902184101 | 17 | 149 | 3.2 | 3.2 | 0.00 | 0.00 | 0.00 | 100 | |
| 20260902183601 | 17 | 149 | 3.2 | 3.2 | 0.00 | 0.00 | 0.00 | 100 | |
| 20260902183101 | 17 | 166 | 3.2 | 3.2 | 0.00 | 0.00 | 0.00 | 100 | |
| 20260902182557 | 17 | 179 | 3.2 | 3.2 | 0.00 | 0.00 | 0.00 | 100 | |
| 20260902182057 | 17 | 179 | 3.2 | 3.2 | 0.00 | 0.00 | 0.00 | 100 | |
| 20260902181557 | 17 | 179 | 3.2 | 3.2 | 0.00 | 0.00 | 0.00 | 100 | |
| 20260902181057 | 17 | 179 | 3.2 | 3.2 | 0.00 | 0.00 | 0.00 | 100 | |
| 20260902180556 | 17 | 189 | 3.2 | 4.8 | 0.00 | 0.00 | 0.00 | 100 | |
| 20260902180056 | 17 | 202 | 3.2 | 3.2 | 0.00 | 0.00 | 0.00 | 100 | |
| 20260902175556 | 17 | 202 | 3.2 | 3.2 | 0.00 | 0.00 | 0.00 | 100 | |
| 20260902175055 | 18 | 202 | 3.2 | 3.2 | 0.00 | 0.00 | 0.00 | 100 | |
| 20260902174555 | 18 | 202 | 3.2 | 3.2 | 0.00 | 0.00 | 0.00 | 100 | |
| 20260902174055 | 18 | 196 | 1.6 | 3.2 | 0.00 | 0.00 | 0.00 | 100 | |
| 20260902173554 | 20 | 138 | 1.6 | 1.6 | 0.00 | 0.00 | 0.00 | 100 | |
| 20260902173054 | 20 | 138 | 1.6 | 1.6 | 0.00 | 0.00 | 0.00 | 100 | |
| 20260902172554 | 20 | 179 | 3.2 | 3.2 | 0.00 | 0.00 | 0.00 | 100 | |
| 20260902172043 | 20 | 179 | 3.2 | 3.2 | 0.00 | 0.00 | 0.00 | 100 | |
| 20260902171543 | 20 | 179 | 3.2 | 3.2 | 0.00 | 0.00 | 0.00 | 100 | |
| 20260902171043 | 20 | 183 | 3.2 | 3.2 | 0.00 | 0.00 | 0.00 | 100 | |
| 20260902170543 | 20 | 185 | 3.2 | 3.2 | 0.00 | 0.00 | 0.00 | 100 | |
| 20260902165542 | 21 | 185 | 3.2 | 3.2 | 0.00 | 0.00 | 0.00 | 100 | |
| 20260902165042 | 21 | 185 | 3.2 | 3.2 | 0.00 | 0.00 | 0.00 | 100 | |
| 20260902164542 | 21 | 174 | 3.2 | 3.2 | 0.00 | 0.00 | 0.00 | 100 | |
| 20260902164042 | 21 | 158 | 3.2 | 3.2 | 0.00 | 0.00 | 0.00 | 100 | |
| 20260902163038 | 21 | 115 | 3.2 | 4.8 | 0.00 | 0.00 | 0.00 | 100 | |
| 20260902162538 | 21 | 111 | 4.8 | 6.4 | 0.00 | 0.00 | 0.00 | 100 | |
| 20260902162038 | 21 | 110 | 4.8 | 6.4 | 0.00 | 0.00 | 0.00 | 100 | |
| 20260902161538 | 21 | 115 | 4.8 | 4.8 | 0.00 | 0.00 | 0.00 | 100 | |
| 20260902161038 | 21 | 114 | 3.2 | 4.8 | 0.00 | 0.00 | 0.00 | 100 | |
| 20260902160537 | 21 | 111 | 4.8 | 8.0 | 0.00 | 0.00 | 0.00 | 100 | |
| 20260902155537 | 22 | 108 | 4.8 | 6.4 | 0.00 | 0.00 | 0.00 | 100 | |
| 20260902155037 | 22 | 108 | 3.2 | 4.8 | 0.00 | 0.00 | 0.00 | 100 | |
| 20260902154537 | 22 | 108 | 4.8 | 4.8 | 0.00 | 0.00 | 0.00 | 100 | |
| 20260902154037 | 22 | 108 | 3.2 | 4.8 | 0.00 | 0.00 | 0.00 | 100 | |
| 20260902153536 | 22 | 97 | 3.2 | 3.2 | 0.00 | 0.00 | 0.00 | 100 | |
| 20260902153036 | 22 | 97 | 3.2 | 4.8 | 0.00 | 0.00 | 0.00 | 100 | |
| 20260902152536 | 22 | 97 | 3.2 | 3.2 | 0.00 | 0.00 | 0.00 | 100 | |
| 20260902152036 | 23 | 103 | 3.2 | 3.2 | 0.00 | 0.00 | 0.00 | 100 | |
| 20260902151536 | 23 | 138 | 3.2 | 3.2 | 0.00 | 0.00 | 0.00 | 100 | |
| 20260902151035 | 23 | 149 | 3.2 | 9.7 | 0.00 | 0.00 | 0.00 | 100 | |
| 20260902150535 | 23 | 91 | 0.0 | 0.0 | 0.00 | 0.00 | 0.00 | 100 | |
| 20260902150035 | 23 | 73 | 0.0 | 0.0 | 0.00 | 0.00 | 0.00 | 100 | |
| 20260902145818 | 23 | 88 | 3.2 | 3.2 | 0.00 | 0.00 | 0.00 | 100 | |
| 20260902145318 | 23 | 190 | 3.2 | 3.2 | 0.00 | 0.00 | 0.00 | 100 | |
| 20260902144818 | 23 | 187 | 4.8 | 6.4 | 0.00 | 0.00 | 0.00 | 100 | |
| 20260902144318 | 23 | 168 | 3.2 | 6.4 | 0.00 | 0.00 | 0.00 | 100 | |
| 20260902143818 | 23 | 200 | 4.8 | 9.7 | 0.00 | 0.00 | 0.00 | 100 | |
| 20260902143317 | 23 | 199 | 6.4 | 9.7 | 0.00 | 0.00 | 0.00 | 100 | |
| 20260902142315 | 23 | 200 | 8.0 | 12.9 | 0.00 | 0.00 | 0.00 | 100 | |
| 20260902141811 | 23 | 189 | 11.3 | 38.6 | 0.00 | 0.00 | 0.00 | 100 | |
| 20260902141307 | 23 | 195 | 4.8 | 11.3 | 0.00 | 0.00 | 0.00 | 100 | |
| 20260902140256 | 22 | 185 | 6.4 | 8.0 | 0.00 | 0.00 | 0.00 | 100 | |
| 20260902135756 | 22 | 187 | 6.4 | 12.9 | 0.00 | 0.00 | 0.00 | 100 | |
| 20260902135256 | 22 | 184 | 6.4 | 9.7 | 0.00 | 0.00 | 0.00 | 100 | |
| 20260902134255 | 22 | 178 | 6.4 | 9.7 | 0.00 | 0.00 | 0.00 | 100 | |
| 20260902133754 | 22 | 191 | 3.2 | 6.4 | 0.00 | 0.00 | 0.00 | 100 | |
| 20260902133254 | 22 | 183 | 4.8 | 6.4 | 0.00 | 0.00 | 0.00 | 100 | |
| 20260902132754 | 22 | 185 | 4.8 | 8.0 | 0.00 | 0.00 | 0.00 | 100 | |
| 20260902132254 | 22 | 162 | 3.2 | 6.4 | 0.00 | 0.00 | 0.00 | 100 | |
| 20260902131754 | 22 | 196 | 6.4 | 9.7 | 0.00 | 0.00 | 0.00 | 100 | |
| 20260902131253 | 22 | 189 | 8.0 | 11.3 | 0.00 | 0.00 | 0.00 | 100 | |
| 20260902130752 | 23 | 171 | 4.8 | 8.0 | 0.00 | 0.00 | 0.00 | 100 | |
| 20260902130252 | 22 | 155 | 6.4 | 9.7 | 0.00 | 0.00 | 0.00 | 100 | |
| 20260902125752 | 22 | 153 | 4.8 | 9.7 | 0.00 | 0.00 | 0.00 | 100 | |
| 20260902125251 | 22 | 241 | 3.2 | 6.4 | 0.00 | 0.00 | 0.00 | 100 | |
| 20260902124751 | 22 | 283 | 3.2 | 3.2 | 0.00 | 0.00 | 0.00 | 100 | |
| 20260902123249 | 22 | 95 | 3.2 | 6.4 | 0.00 | 0.00 | 0.00 | 100 | |
| 20260902122749 | 22 | 98 | 3.2 | 6.4 | 0.00 | 0.00 | 0.00 | 100 | |
| 20260902122249 | 22 | 102 | 6.4 | 11.3 | 0.00 | 0.00 | 0.00 | 100 | |
| 20260902121749 | 22 | 99 | 8.0 | 9.7 | 0.00 | 0.00 | 0.00 | 100 | |
| 20260902121249 | 23 | 100 | 6.4 | 9.7 | 0.00 | 0.00 | 0.00 | 100 | |
| 20260902120749 | 23 | 156 | 3.2 | 3.2 | 0.00 | 0.00 | 0.00 | 100 | |
| 20260902120249 | 22 | 163 | 3.2 | 3.2 | 0.00 | 0.00 | 0.00 | 100 | |
| 20260902115748 | 22 | 178 | 3.2 | 4.8 | 0.00 | 0.00 | 0.00 | 100 | |
| 20260902114747 | 22 | 75 | 3.2 | 8.0 | 0.00 | 0.00 | 0.00 | 100 | |
| 20260902114247 | 22 | 0 | 3.2 | 3.2 | 0.00 | 0.00 | 0.00 | 100 | |
| 20260902113747 | 21 | 46 | 4.8 | 6.4 | 0.00 | 0.00 | 0.00 | 100 | |
| 20260902113246 | 21 | 93 | 6.4 | 9.7 | 0.00 | 0.00 | 0.00 | 100 | |
| 20260902112733 | 22 | 96 | 4.8 | 11.3 | 0.00 | 0.00 | 0.00 | 100 | |
| 20260902112233 | 22 | 98 | 6.4 | 9.7 | 0.00 | 0.00 | 0.00 | 100 | |
| 20260902111732 | 22 | 105 | 4.8 | 6.4 | 0.00 | 0.00 | 0.00 | 100 | |
| 20260902111232 | 23 | 121 | 4.8 | 8.0 | 0.00 | 0.00 | 0.00 | 100 | |
| 20260902110732 | 23 | 139 | 9.7 | 12.9 | 0.00 | 0.00 | 0.00 | 100 | |
| 20260902110232 | 22 | 121 | 8.0 | 12.9 | 0.00 | 0.00 | 0.00 | 100 | |
| 20260902105732 | 22 | 135 | 4.8 | 9.7 | 0.00 | 0.00 | 0.00 | 100 | |
| 20260902105232 | 21 | 144 | 8.0 | 11.3 | 0.00 | 0.00 | 0.00 | 100 | |
| 20260902104731 | 21 | 146 | 6.4 | 11.3 | 0.00 | 0.00 | 0.00 | 100 | |
| 20260902104231 | 21 | 146 | 9.7 | 12.9 | 0.00 | 0.00 | 0.00 | 100 | |
| 20260902103231 | 21 | 152 | 6.4 | 61.2 | 0.00 | 0.00 | 0.00 | 100 | |
| 20260902102729 | 21 | 101 | 3.2 | 4.8 | 0.00 | 0.00 | 0.00 | 100 | |
| 20260902102229 | 21 | 97 | 4.8 | 4.8 | 0.00 | 0.00 | 0.00 | 100 | |
| 20260902101728 | 21 | 97 | 6.4 | 6.4 | 0.00 | 0.00 | 0.00 | 100 | |
| 20260902101228 | 21 | 97 | 6.4 | 6.4 | 0.00 | 0.00 | 0.00 | 100 | |
| 20260902100728 | 20 | 97 | 4.8 | 6.4 | 0.00 | 0.00 | 0.00 | 100 | |
| 20260902100228 | 20 | 97 | 6.4 | 6.4 | 0.00 | 0.00 | 0.00 | 100 | |
| 20260902095728 | 20 | 97 | 6.4 | 8.0 | 0.00 | 0.00 | 0.00 | 100 | |
| 20260902095227 | 20 | 97 | 8.0 | 9.7 | 0.00 | 0.00 | 0.00 | 100 | |
| 20260902094727 | 20 | 96 | 6.4 | 6.4 | 0.00 | 0.00 | 0.00 | 100 | |
| 20260902094227 | 20 | 98 | 4.8 | 4.8 | 0.00 | 0.00 | 0.00 | 100 | |
| 20260902093727 | 20 | 91 | 3.2 | 4.8 | 0.00 | 0.00 | 0.00 | 100 | |
| 20260902093227 | 19 | 96 | 3.2 | 4.8 | 0.00 | 0.00 | 0.00 | 100 | |
| 20260902092727 | 20 | 97 | 3.2 | 3.2 | 0.00 | 0.00 | 0.00 | 100 | |
| 20260902092226 | 19 | 97 | 3.2 | 3.2 | 0.00 | 0.00 | 0.00 | 100 | |
| 20260902091226 | 18 | 98 | 3.2 | 4.8 | 0.00 | 0.00 | 0.00 | 100 | |
| 20260902090726 | 18 | 97 | 3.2 | 4.8 | 0.00 | 0.00 | 0.00 | 100 | |
| 20260902090226 | 18 | 97 | 4.8 | 4.8 | 0.00 | 0.00 | 0.00 | 100 | |
| 20260902085215 | 17 | 100 | 4.8 | 6.4 | 0.00 | 0.00 | 0.00 | 100 | |
| 20260902084715 | 17 | 100 | 4.8 | 6.4 | 0.00 | 0.00 | 0.00 | 100 | |
| 20260902084215 | 17 | 97 | 3.2 | 4.8 | 0.00 | 0.00 | 0.00 | 100 | |
| 20260902083715 | 17 | 97 | 3.2 | 4.8 | 0.00 | 0.00 | 0.00 | 100 | |
| 20260902082714 | 17 | 97 | 3.2 | 4.8 | 0.00 | 0.00 | 0.00 | 100 | |
| 20260902082214 | 17 | 97 | 3.2 | 4.8 | 0.00 | 0.00 | 0.00 | 100 | |
| 20260902081714 | 16 | 97 | 3.2 | 4.8 | 0.00 | 0.00 | 0.00 | 100 | |
| 20260902081214 | 16 | 91 | 3.2 | 3.2 | 0.00 | 0.00 | 0.00 | 100 | |
| 20260902080714 | 16 | 91 | 3.2 | 3.2 | 0.00 | 0.00 | 0.00 | 100 | |
| 20260902080214 | 16 | 91 | 3.2 | 4.8 | 0.00 | 0.00 | 0.00 | 100 | |
| 20260902075713 | 16 | 97 | 3.2 | 3.2 | 0.00 | 0.00 | 0.00 | 100 | |
| 20260902075213 | 16 | 97 | 3.2 | 3.2 | 0.00 | 0.00 | 0.00 | 100 | |
| 20260902074713 | 16 | 87 | 3.2 | 3.2 | 0.00 | 0.00 | 0.00 | 100 | |
| 20260902074213 | 15 | 94 | 3.2 | 3.2 | 0.00 | 0.00 | 0.00 | 100 | |
| 20260902073713 | 15 | 97 | 3.2 | 3.2 | 0.00 | 0.00 | 0.00 | 100 | |
| 20260902073212 | 15 | 97 | 3.2 | 3.2 | 0.00 | 0.00 | 0.00 | 100 | |
| 20260902072712 | 15 | 97 | 3.2 | 3.2 | 0.00 | 0.00 | 0.00 | 100 | |
| 20260902071712 | 15 | 97 | 3.2 | 3.2 | 0.00 | 0.00 | 0.00 | 100 | |
| 20260902070712 | 13 | 97 | 3.2 | 3.2 | 0.00 | 0.00 | 0.00 | 100 | |
| 20260902070211 | 13 | 99 | 3.2 | 4.8 | 0.00 | 0.00 | 0.00 | 100 | |
| 20260902065711 | 13 | 99 | 3.2 | 6.4 | 0.00 | 0.00 | 0.00 | 100 | |
| 20260902065211 | 13 | 102 | 1.6 | 1.6 | 0.00 | 0.00 | 0.00 | 100 | |
| 20260902064711 | 13 | 102 | 1.6 | 1.6 | 0.00 | 0.00 | 0.00 | 100 | |
| 20260902064211 | 13 | 102 | 1.6 | 1.6 | 0.00 | 0.00 | 0.00 | 100 | |
| 20260902063710 | 13 | 109 | 1.6 | 1.6 | 0.00 | 0.00 | 0.00 | 100 | |
| 20260902063210 | 13 | 137 | 1.6 | 1.6 | 0.00 | 0.00 | 0.00 | 100 | |
| 20260902062710 | 13 | 149 | 1.6 | 1.6 | 0.00 | 0.00 | 0.00 | 100 | |
| 20260902062210 | 12 | 147 | 1.6 | 1.6 | 0.00 | 0.00 | 0.00 | 100 | |
| 20260902061657 | 12 | 149 | 1.6 | 1.6 | 0.00 | 0.00 | 0.00 | 100 | |
| 20260902061157 | 12 | 149 | 1.6 | 3.2 | 0.00 | 0.00 | 0.00 | 100 | |
| 20260902060733 | 12 | 149 | 1.6 | 1.6 | 0.00 | 0.00 | 0.00 | 100 | |
| 20260902060657 | 12 | 149 | 1.6 | 1.6 | 0.00 | 0.00 | 0.00 | 100 | |
| 20260902055656 | 12 | 219 | 1.6 | 1.6 | 0.00 | 0.00 | 0.00 | 100 | |
| 20260902055156 | 12 | 219 | 1.6 | 1.6 | 0.00 | 0.00 | 0.00 | 100 | |
| 20260902054656 | 12 | 219 | 1.6 | 1.6 | 0.00 | 0.00 | 0.00 | 100 | |
| 20260902054156 | 12 | 223 | 1.6 | 1.6 | 0.00 | 0.00 | 0.00 | 100 | |
| 20260902053655 | 11 | 219 | 1.6 | 1.6 | 0.00 | 0.00 | 0.00 | 100 | |
| 20260902052655 | 10 | 219 | 1.6 | 1.6 | 0.00 | 0.00 | 0.00 | 100 | |
| 20260902052155 | 10 | 219 | 1.6 | 1.6 | 0.00 | 0.00 | 0.00 | 100 | |
| 20260902051655 | 9 | 219 | 3.2 | 3.2 | 0.00 | 0.00 | 0.00 | 100 | |
| 20260902051155 | 9 | 219 | 3.2 | 3.2 | 0.00 | 0.00 | 0.00 | 100 | |
| 20260902050655 | 8 | 219 | 3.2 | 3.2 | 0.00 | 0.00 | 0.00 | 100 | |
| 20260902050154 | 8 | 219 | 1.6 | 3.2 | 0.00 | 0.00 | 0.00 | 100 | |
| 20260902045654 | 8 | 219 | 1.6 | 1.6 | 0.00 | 0.00 | 0.00 | 100 | |
| 20260902045154 | 8 | 219 | 1.6 | 1.6 | 0.00 | 0.00 | 0.00 | 100 | |
| 20260902044154 | 8 | 219 | 1.6 | 1.6 | 0.00 | 0.00 | 0.00 | 100 | |
| 20260902043653 | 8 | 219 | 1.6 | 1.6 | 0.00 | 0.00 | 0.00 | 100 | |
| 20260902043153 | 7 | 219 | 1.6 | 1.6 | 0.00 | 0.00 | 0.00 | 100 | |
| 20260902042653 | 7 | 219 | 1.6 | 1.6 | 0.00 | 0.00 | 0.00 | 100 | |
| 20260902042153 | 8 | 219 | 1.6 | 1.6 | 0.00 | 0.00 | 0.00 | 100 | |
| 20260902041652 | 7 | 219 | 1.6 | 1.6 | 0.00 | 0.00 | 0.00 | 100 | |
| 20260902041152 | 7 | 219 | 1.6 | 1.6 | 0.00 | 0.00 | 0.00 | 100 | |
| 20260902040652 | 8 | 219 | 1.6 | 1.6 | 0.00 | 0.00 | 0.00 | 100 | |
| 20260902040152 | 8 | 219 | 1.6 | 1.6 | 0.00 | 0.00 | 0.00 | 100 | |
| 20260902035652 | 8 | 219 | 1.6 | 1.6 | 0.00 | 0.00 | 0.00 | 100 | |
| 20260902035152 | 7 | 223 | 3.2 | 3.2 | 0.00 | 0.00 | 0.00 | 100 | |
| 20260902034651 | 7 | 221 | 3.2 | 3.2 | 0.00 | 0.00 | 0.00 | 100 | |
| 20260902034141 | 7 | 219 | 3.2 | 3.2 | 0.00 | 0.00 | 0.00 | 100 | |
| 20260902033641 | 8 | 219 | 3.2 | 3.2 | 0.00 | 0.00 | 0.00 | 100 | |
| 20260902033141 | 8 | 219 | 3.2 | 3.2 | 0.00 | 0.00 | 0.00 | 100 | |
| 20260902032640 | 8 | 219 | 3.2 | 3.2 | 0.00 | 0.00 | 0.00 | 100 | |
| 20260902032141 | 8 | 219 | 3.2 | 3.2 | 0.00 | 0.00 | 0.00 | 100 | |
| 20260902031640 | 7 | 219 | 3.2 | 3.2 | 0.00 | 0.00 | 0.00 | 100 | |
| 20260902031140 | 7 | 219 | 3.2 | 4.8 | 0.00 | 0.00 | 0.00 | 100 | |
| 20260902030640 | 7 | 219 | 3.2 | 3.2 | 0.00 | 0.00 | 0.00 | 100 | |
| 20260902030140 | 7 | 219 | 1.6 | 3.2 | 0.00 | 0.00 | 0.00 | 100 | |
| 20260902025639 | 7 | 219 | 1.6 | 1.6 | 0.00 | 0.00 | 0.00 | 100 | |
| 20260902025139 | 7 | 219 | 3.2 | 3.2 | 0.00 | 0.00 | 0.00 | 100 | |
| 20260902024639 | 8 | 219 | 3.2 | 3.2 | 0.00 | 0.00 | 0.00 | 100 | |
| 20260902024139 | 8 | 219 | 3.2 | 3.2 | 0.00 | 0.00 | 0.00 | 100 | |
| 20260902023639 | 8 | 219 | 3.2 | 3.2 | 0.00 | 0.00 | 0.00 | 100 | |
| 20260902023138 | 8 | 219 | 3.2 | 3.2 | 0.00 | 0.00 | 0.00 | 100 | |
| 20260902022638 | 8 | 222 | 3.2 | 4.8 | 0.00 | 0.00 | 0.00 | 100 | |
| 20260902022138 | 8 | 219 | 1.6 | 1.6 | 0.00 | 0.00 | 0.00 | 100 | |
| 20260902021638 | 8 | 219 | 3.2 | 3.2 | 0.00 | 0.00 | 0.00 | 100 | |
| 20260902021138 | 8 | 208 | 3.2 | 3.2 | 0.00 | 0.00 | 0.00 | 100 | |
| 20260902020638 | 8 | 208 | 3.2 | 3.2 | 0.00 | 0.00 | 0.00 | 100 | |
| 20260902020138 | 8 | 208 | 3.2 | 3.2 | 0.00 | 0.00 | 0.00 | 100 | |
| 20260902015637 | 8 | 208 | 3.2 | 4.8 | 0.00 | 0.00 | 0.00 | 100 | |
| 20260902014136 | 8 | 208 | 1.6 | 3.2 | 0.00 | 0.00 | 0.00 | 100 | |
| 20260902013636 | 8 | 208 | 3.2 | 3.2 | 0.00 | 0.00 | 0.00 | 100 | |
| 20260902013136 | 8 | 207 | 3.2 | 4.8 | 0.00 | 0.00 | 0.00 | 100 | |
| 20260902012636 | 8 | 196 | 1.6 | 1.6 | 0.00 | 0.00 | 0.00 | 100 | |
| 20260902012225 | 8 | 196 | 1.6 | 1.6 | 0.00 | 0.00 | 0.00 | 100 | |
| 20260902012135 | 8 | 196 | 1.6 | 1.6 | 0.00 | 0.00 | 0.00 | 100 | |
| 20260902011636 | 9 | 196 | 1.6 | 1.6 | 0.00 | 0.00 | 0.00 | 100 | |
| 20260902011135 | 9 | 196 | 3.2 | 3.2 | 0.00 | 0.00 | 0.00 | 100 | |
| 20260902010622 | 10 | 196 | 3.2 | 3.2 | 0.00 | 0.00 | 0.00 | 100 | |
| 20260902010122 | 9 | 196 | 3.2 | 3.2 | 0.00 | 0.00 | 0.00 | 100 | |
| 20260902005622 | 9 | 196 | 3.2 | 3.2 | 0.00 | 0.00 | 0.00 | 100 | |
| 20260902005122 | 9 | 196 | 3.2 | 3.2 | 0.00 | 0.00 | 0.00 | 100 | |
| 20260902004621 | 9 | 196 | 4.8 | 4.8 | 0.00 | 0.00 | 0.00 | 100 | |
| 20260902004121 | 8 | 196 | 3.2 | 4.8 | 0.00 | 0.00 | 0.00 | 100 | |
| 20260902003621 | 8 | 196 | 3.2 | 3.2 | 0.00 | 0.00 | 0.00 | 100 | |
| 20260902003121 | 8 | 196 | 4.8 | 6.4 | 0.00 | 0.00 | 0.00 | 100 | |
| 20260902002621 | 8 | 196 | 3.2 | 3.2 | 0.00 | 0.00 | 0.00 | 100 | |
| 20260902001620 | 9 | 179 | 3.2 | 3.2 | 0.00 | 0.00 | 0.00 | 100 | |
| 20260902001120 | 9 | 179 | 3.2 | 3.2 | 0.00 | 0.00 | 0.00 | 100 | |
| 20260902000620 | 9 | 179 | 3.2 | 3.2 | 0.00 | 0.00 | 0.00 | 100 | |
| 20260902000120 | 10 | 179 | 3.2 | 4.8 | 0.00 | 0.00 | 0.00 | 100 | |
| 20260901235619 | 10 | 179 | 3.2 | 3.2 | 0.00 | 0.00 | 0.00 | 100 | |
| 20260901235119 | 10 | 179 | 3.2 | 3.2 | 0.00 | 0.00 | 0.00 | 100 | |
| 20260901234619 | 10 | 179 | 3.2 | 3.2 | 0.00 | 0.00 | 0.00 | 100 | |
| 20260901234119 | 10 | 179 | 3.2 | 3.2 | 0.00 | 0.00 | 0.00 | 100 | |
| 20260901233618 | 10 | 179 | 1.6 | 1.6 | 0.00 | 0.00 | 0.00 | 100 | |
| 20260901233118 | 10 | 179 | 1.6 | 1.6 | 0.00 | 0.00 | 0.00 | 100 | |
| 20260901232618 | 10 | 179 | 1.6 | 1.6 | 0.00 | 0.00 | 0.00 | 100 | |
| 20260901232118 | 10 | 179 | 1.6 | 1.6 | 0.00 | 0.00 | 0.00 | 100 | |
| 20260901231618 | 10 | 179 | 1.6 | 1.6 | 0.00 | 0.00 | 0.00 | 100 | |
| 20260901231118 | 10 | 179 | 1.6 | 1.6 | 0.00 | 0.00 | 0.00 | 100 | |
| 20260901230617 | 10 | 179 | 1.6 | 1.6 | 0.00 | 0.00 | 0.00 | 100 | |
| 20260901230212 | 10 | 179 | 1.6 | 1.6 | 0.00 | 0.00 | 0.00 | 100 | |
| 20260901230117 | 10 | 179 | 1.6 | 1.6 | 0.00 | 0.00 | 0.00 | 100 | |
| 20260901225617 | 11 | 179 | 1.6 | 1.6 | 0.00 | 0.00 | 0.00 | 100 | |
| 20260901225117 | 11 | 179 | 1.6 | 1.6 | 0.00 | 0.00 | 0.00 | 100 | |
| 20260901224617 | 11 | 179 | 1.6 | 1.6 | 0.00 | 0.00 | 0.00 | 100 | |
| 20260901224116 | 11 | 146 | 3.2 | 3.2 | 0.00 | 0.00 | 0.00 | 100 | |
| 20260901223616 | 12 | 144 | 3.2 | 3.2 | 0.00 | 0.00 | 0.00 | 100 | |
| 20260901222605 | 12 | 135 | 3.2 | 3.2 | 0.00 | 0.00 | 0.00 | 100 | |
| 20260901222105 | 12 | 149 | 3.2 | 6.4 | 0.00 | 0.00 | 0.00 | 100 | |
| 20260901221105 | 11 | 167 | 3.2 | 3.2 | 0.00 | 0.00 | 0.00 | 100 | |
| 20260901220605 | 11 | 157 | 3.2 | 4.8 | 0.00 | 0.00 | 0.00 | 100 | |
| 20260901220139 | 11 | 186 | 3.2 | 3.2 | 0.00 | 0.00 | 0.00 | 100 | |
| 20260901220105 | 11 | 186 | 3.2 | 3.2 | 0.00 | 0.00 | 0.00 | 100 | |
| 20260901215604 | 11 | 187 | 3.2 | 3.2 | 0.00 | 0.00 | 0.00 | 100 | |
| 20260901215104 | 11 | 189 | 3.2 | 6.4 | 0.00 | 0.00 | 0.00 | 100 | |
| 20260901214604 | 11 | 196 | 3.2 | 4.8 | 0.00 | 0.00 | 0.00 | 100 | |
| 20260901214104 | 11 | 200 | 3.2 | 6.4 | 0.00 | 0.00 | 0.00 | 100 | |
| 20260901213603 | 11 | 202 | 3.2 | 4.8 | 0.00 | 0.00 | 0.00 | 100 | |
| 20260901213103 | 11 | 202 | 3.2 | 4.8 | 0.00 | 0.00 | 0.00 | 100 | |
| 20260901212603 | 12 | 202 | 3.2 | 3.2 | 0.00 | 0.00 | 0.00 | 100 | |
| 20260901212103 | 12 | 202 | 3.2 | 3.2 | 0.00 | 0.00 | 0.00 | 100 | |
| 20260901211103 | 12 | 202 | 3.2 | 3.2 | 0.00 | 0.00 | 0.00 | 100 | |
| 20260901210602 | 12 | 202 | 3.2 | 3.2 | 0.00 | 0.00 | 0.00 | 100 | |
| 20260901205602 | 12 | 202 | 3.2 | 3.2 | 0.00 | 0.00 | 0.00 | 100 | |
| 20260901205102 | 12 | 202 | 3.2 | 3.2 | 0.00 | 0.00 | 0.00 | 100 | |
| 20260901204601 | 13 | 202 | 3.2 | 3.2 | 0.00 | 0.00 | 0.00 | 100 | |
| 20260901204101 | 13 | 202 | 3.2 | 3.2 | 0.00 | 0.00 | 0.00 | 100 |